sensor_id;sensor_type;location;lat;lon;timestamp;pressure;altitude;pressure_sealevel;temperature;humidity
58955;BME280;45815;52.334;5.024;2023-02-11T00:01:57;103366.22;;;7.53;100.00
58955;BME280;45815;52.334;5.024;2023-02-11T00:04:25;103360.44;;;7.45;100.00
58955;BME280;45815;52.334;5.024;2023-02-11T00:06:50;103349.75;;;7.42;100.00
58955;BME280;45815;52.334;5.024;2023-02-11T00:09:16;103347.03;;;7.40;100.00
58955;BME280;45815;52.334;5.024;2023-02-11T00:11:41;103353.66;;;7.35;100.00
58955;BME280;45815;52.334;5.024;2023-02-11T00:14:08;103361.25;;;7.32;100.00
58955;BME280;45815;52.334;5.024;2023-02-11T00:16:35;103361.50;;;7.35;100.00
58955;BME280;45815;52.334;5.024;2023-02-11T00:19:02;103359.66;;;7.34;100.00
58955;BME280;45815;52.334;5.024;2023-02-11T00:21:28;103352.97;;;7.26;100.00
58955;BME280;45815;52.334;5.024;2023-02-11T00:23:54;103360.00;;;7.27;100.00
58955;BME280;45815;52.334;5.024;2023-02-11T00:26:27;103347.28;;;7.20;100.00
58955;BME280;45815;52.334;5.024;2023-02-11T00:28:53;103373.91;;;7.03;100.00
58955;BME280;45815;52.334;5.024;2023-02-11T00:31:20;103367.72;;;7.14;100.00
58955;BME280;45815;52.334;5.024;2023-02-11T00:33:47;103379.13;;;7.14;100.00
58955;BME280;45815;52.334;5.024;2023-02-11T00:36:15;103384.34;;;7.14;100.00
58955;BME280;45815;52.334;5.024;2023-02-11T00:38:44;103379.66;;;6.98;100.00
58955;BME280;45815;52.334;5.024;2023-02-11T00:41:11;103381.59;;;7.13;100.00
58955;BME280;45815;52.334;5.024;2023-02-11T00:43:38;103376.59;;;7.16;100.00
58955;BME280;45815;52.334;5.024;2023-02-11T00:46:04;103376.59;;;7.16;100.00
58955;BME280;45815;52.334;5.024;2023-02-11T00:48:29;103370.69;;;7.18;100.00
58955;BME280;45815;52.334;5.024;2023-02-11T00:50:55;103367.72;;;7.14;100.00
58955;BME280;45815;52.334;5.024;2023-02-11T00:53:21;103350.47;;;7.16;100.00
58955;BME280;45815;52.334;5.024;2023-02-11T00:55:46;103345.72;;;7.10;100.00
58955;BME280;45815;52.334;5.024;2023-02-11T00:58:11;103337.19;;;7.13;100.00
58955;BME280;45815;52.334;5.024;2023-02-11T01:00:37;103331.44;;;7.05;100.00
58955;BME280;45815;52.334;5.024;2023-02-11T01:03:02;103314.19;;;6.95;100.00
58955;BME280;45815;52.334;5.024;2023-02-11T01:05:28;103324.03;;;7.00;100.00
58955;BME280;45815;52.334;5.024;2023-02-11T01:07:54;103332.66;;;6.98;100.00
58955;BME280;45815;52.334;5.024;2023-02-11T01:10:20;103326.75;;;7.01;100.00
58955;BME280;45815;52.334;5.024;2023-02-11T01:12:46;103324.97;;;7.00;100.00
58955;BME280;45815;52.334;5.024;2023-02-11T01:15:14;103336.41;;;7.02;100.00
58955;BME280;45815;52.334;5.024;2023-02-11T01:17:39;103344.13;;;7.01;100.00
58955;BME280;45815;52.334;5.024;2023-02-11T01:20:08;103340.50;;;6.98;100.00
58955;BME280;45815;52.334;5.024;2023-02-11T01:22:37;103346.16;;;6.93;100.00
58955;BME280;45815;52.334;5.024;2023-02-11T01:25:05;103342.31;;;6.88;100.00
58955;BME280;45815;52.334;5.024;2023-02-11T01:27:30;103366.63;;;6.98;100.00
58955;BME280;45815;52.334;5.024;2023-02-11T01:29:56;103370.47;;;6.92;100.00
58955;BME280;45815;52.334;5.024;2023-02-11T01:32:21;103366.16;;;6.92;100.00
58955;BME280;45815;52.334;5.024;2023-02-11T01:34:47;103356.59;;;6.93;100.00
58955;BME280;45815;52.334;5.024;2023-02-11T01:37:12;103346.63;;;6.87;100.00
58955;BME280;45815;52.334;5.024;2023-02-11T01:39:37;103347.66;;;6.89;100.00
58955;BME280;45815;52.334;5.024;2023-02-11T01:42:03;103352.06;;;6.90;100.00
58955;BME280;45815;52.334;5.024;2023-02-11T01:44:32;103355.00;;;6.83;100.00
58955;BME280;45815;52.334;5.024;2023-02-11T01:46:59;103346.84;;;6.90;100.00
58955;BME280;45815;52.334;5.024;2023-02-11T01:49:27;103354.59;;;6.89;100.00
58955;BME280;45815;52.334;5.024;2023-02-11T01:51:55;103358.66;;;6.85;100.00
58955;BME280;45815;52.334;5.024;2023-02-11T01:54:24;103354.59;;;6.89;100.00
58955;BME280;45815;52.334;5.024;2023-02-11T01:57:10;103353.44;;;6.85;100.00
58955;BME280;45815;52.334;5.024;2023-02-11T02:00:12;103353.00;;;6.79;100.00
58955;BME280;45815;52.334;5.024;2023-02-11T02:03:01;103351.84;;;6.75;100.00
58955;BME280;45815;52.334;5.024;2023-02-11T02:05:34;103335.16;;;6.73;100.00
58955;BME280;45815;52.334;5.024;2023-02-11T02:08:18;103335.06;;;6.72;100.00
58955;BME280;45815;52.334;5.024;2023-02-11T02:10:49;103340.50;;;6.75;100.00
58955;BME280;45815;52.334;5.024;2023-02-11T02:13:18;103341.19;;;6.72;100.00
58955;BME280;45815;52.334;5.024;2023-02-11T02:15:55;103350.94;;;6.63;100.00
58955;BME280;45815;52.334;5.024;2023-02-11T02:21:28;103343.66;;;6.59;100.00
58955;BME280;45815;52.334;5.024;2023-02-11T02:32:47;103339.91;;;6.55;100.00
58955;BME280;45815;52.334;5.024;2023-02-11T02:35:28;103335.47;;;6.54;100.00
58955;BME280;45815;52.334;5.024;2023-02-11T02:37:56;103333.91;;;6.57;100.00
58955;BME280;45815;52.334;5.024;2023-02-11T02:40:35;103332.09;;;6.55;100.00
58955;BME280;45815;52.334;5.024;2023-02-11T02:43:04;103335.69;;;6.58;100.00
58955;BME280;45815;52.334;5.024;2023-02-11T02:45:32;103334.13;;;6.60;100.00
58955;BME280;45815;52.334;5.024;2023-02-11T02:47:57;103331.63;;;6.61;100.00
58955;BME280;45815;52.334;5.024;2023-02-11T02:50:27;103333.00;;;6.56;100.00
58955;BME280;45815;52.334;5.024;2023-02-11T03:06:47;103329.34;;;6.42;100.00
58955;BME280;45815;52.334;5.024;2023-02-11T03:09:20;103325.69;;;6.40;100.00
58955;BME280;45815;52.334;5.024;2023-02-11T03:11:48;103326.94;;;6.33;100.00
58955;BME280;45815;52.334;5.024;2023-02-11T03:14:16;103330.34;;;6.32;100.00
58955;BME280;45815;52.334;5.024;2023-02-11T03:16:43;103323.56;;;6.34;100.00
58955;BME280;45815;52.334;5.024;2023-02-11T03:19:19;103339.75;;;6.30;100.00
58955;BME280;45815;52.334;5.024;2023-02-11T03:21:48;103340.53;;;6.29;100.00
58955;BME280;45815;52.334;5.024;2023-02-11T03:24:20;103334.94;;;6.25;100.00
58955;BME280;45815;52.334;5.024;2023-02-11T03:26:57;103334.25;;;6.16;100.00
58955;BME280;45815;52.334;5.024;2023-02-11T03:37:26;103306.69;;;6.07;100.00
58955;BME280;45815;52.334;5.024;2023-02-11T03:39:59;103295.53;;;5.98;100.00
58955;BME280;45815;52.334;5.024;2023-02-11T03:42:26;103306.25;;;5.91;100.00
58955;BME280;45815;52.334;5.024;2023-02-11T03:45:05;103320.59;;;5.96;100.00
58955;BME280;45815;52.334;5.024;2023-02-11T03:47:34;103319.22;;;6.01;100.00
58955;BME280;45815;52.334;5.024;2023-02-11T03:50:04;103309.84;;;6.03;100.00
58955;BME280;45815;52.334;5.024;2023-02-11T03:52:31;103313.47;;;6.05;100.00
58955;BME280;45815;52.334;5.024;2023-02-11T03:54:59;103318.16;;;6.09;100.00
58955;BME280;45815;52.334;5.024;2023-02-11T03:57:28;103326.88;;;6.10;100.00
58955;BME280;45815;52.334;5.024;2023-02-11T03:59:56;103322.81;;;6.13;100.00
58955;BME280;45815;52.334;5.024;2023-02-11T04:02:26;103322.00;;;6.15;100.00
58955;BME280;45815;52.334;5.024;2023-02-11T04:04:53;103301.16;;;6.15;100.00
58955;BME280;45815;52.334;5.024;2023-02-11T04:07:18;103311.13;;;6.20;100.00
58955;BME280;45815;52.334;5.024;2023-02-11T04:09:44;103310.00;;;6.17;100.00
58955;BME280;45815;52.334;5.024;2023-02-11T04:12:09;103312.28;;;6.24;100.00
58955;BME280;45815;52.334;5.024;2023-02-11T04:14:35;103299.03;;;6.21;100.00
58955;BME280;45815;52.334;5.024;2023-02-11T04:17:00;103312.06;;;6.21;100.00
58955;BME280;45815;52.334;5.024;2023-02-11T04:19:26;103313.31;;;6.26;100.00
58955;BME280;45815;52.334;5.024;2023-02-11T04:21:51;103309.13;;;6.28;100.00
58955;BME280;45815;52.334;5.024;2023-02-11T04:24:16;103281.66;;;6.21;100.00
58955;BME280;45815;52.334;5.024;2023-02-11T04:26:42;103303.22;;;6.30;100.00
58955;BME280;45815;52.334;5.024;2023-02-11T04:29:07;103295.50;;;6.32;100.00
58955;BME280;45815;52.334;5.024;2023-02-11T04:31:36;103295.50;;;6.32;100.00
58955;BME280;45815;52.334;5.024;2023-02-11T04:34:01;103301.31;;;6.28;100.00
58955;BME280;45815;52.334;5.024;2023-02-11T04:36:27;103300.50;;;6.29;100.00
58955;BME280;45815;52.334;5.024;2023-02-11T04:38:52;103316.38;;;6.32;100.00
58955;BME280;45815;52.334;5.024;2023-02-11T04:41:17;103321.03;;;6.36;100.00
58955;BME280;45815;52.334;5.024;2023-02-11T04:43:43;103316.84;;;6.38;100.00
58955;BME280;45815;52.334;5.024;2023-02-11T04:46:08;103331.47;;;6.36;100.00
58955;BME280;45815;52.334;5.024;2023-02-11T04:48:34;103336.81;;;6.38;100.00
58955;BME280;45815;52.334;5.024;2023-02-11T04:51:00;103319.78;;;6.31;100.00
58955;BME280;45815;52.334;5.024;2023-02-11T04:53:26;103336.47;;;6.33;100.00
58955;BME280;45815;52.334;5.024;2023-02-11T04:55:51;103334.53;;;6.30;100.00
58955;BME280;45815;52.334;5.024;2023-02-11T04:58:17;103348.81;;;6.36;100.00
58955;BME280;45815;52.334;5.024;2023-02-11T05:00:43;103342.44;;;6.32;100.00
58955;BME280;45815;52.334;5.024;2023-02-11T05:03:13;103328.38;;;6.18;100.00
58955;BME280;45815;52.334;5.024;2023-02-11T05:05:40;103349.28;;;6.30;100.00
58955;BME280;45815;52.334;5.024;2023-02-11T05:08:06;103344.84;;;6.29;100.00
58955;BME280;45815;52.334;5.024;2023-02-11T05:10:32;103350.84;;;6.28;100.00
58955;BME280;45815;52.334;5.024;2023-02-11T05:12:57;103350.94;;;6.29;100.00
58955;BME280;45815;52.334;5.024;2023-02-11T05:15:23;103346.66;;;6.30;100.00
58955;BME280;45815;52.334;5.024;2023-02-11T05:17:48;103347.22;;;6.26;100.00
58955;BME280;45815;52.334;5.024;2023-02-11T05:20:14;103350.59;;;6.25;100.00
58955;BME280;45815;52.334;5.024;2023-02-11T05:22:39;103347.22;;;6.26;100.00
58955;BME280;45815;52.334;5.024;2023-02-11T05:25:05;103347.91;;;6.23;100.00
58955;BME280;45815;52.334;5.024;2023-02-11T05:27:30;103340.16;;;6.25;100.00
58955;BME280;45815;52.334;5.024;2023-02-11T05:29:55;103348.94;;;6.25;100.00
58955;BME280;45815;52.334;5.024;2023-02-11T05:32:21;103350.84;;;6.28;100.00
58955;BME280;45815;52.334;5.024;2023-02-11T05:34:47;103348.34;;;6.29;100.00
58955;BME280;45815;52.334;5.024;2023-02-11T05:37:12;103332.94;;;6.21;100.00
58955;BME280;45815;52.334;5.024;2023-02-11T05:39:37;103329.53;;;6.33;100.00
58955;BME280;45815;52.334;5.024;2023-02-11T05:42:03;103338.16;;;6.32;100.00
58955;BME280;45815;52.334;5.024;2023-02-11T05:44:28;103335.66;;;6.34;100.00
58955;BME280;45815;52.334;5.024;2023-02-11T05:46:54;103318.22;;;6.33;100.00
58955;BME280;45815;52.334;5.024;2023-02-11T05:49:19;103341.22;;;6.39;100.00
58955;BME280;45815;52.334;5.024;2023-02-11T05:51:45;103326.16;;;6.34;100.00
58955;BME280;45815;52.334;5.024;2023-02-11T05:54:10;103336.34;;;6.43;100.00
58955;BME280;45815;52.334;5.024;2023-02-11T05:56:36;103340.69;;;6.43;100.00
58955;BME280;45815;52.334;5.024;2023-02-11T05:59:01;103347.06;;;6.46;100.00
58955;BME280;45815;52.334;5.024;2023-02-11T06:01:27;103342.84;;;6.48;100.00
58955;BME280;45815;52.334;5.024;2023-02-11T06:03:52;103341.16;;;6.49;100.00
58955;BME280;45815;52.334;5.024;2023-02-11T06:06:17;103333.41;;;6.50;100.00
58955;BME280;45815;52.334;5.024;2023-02-11T06:08:43;103337.06;;;6.52;100.00
58955;BME280;45815;52.334;5.024;2023-02-11T06:11:08;103344.88;;;6.52;100.00
58955;BME280;45815;52.334;5.024;2023-02-11T06:13:34;103334.00;;;6.46;100.00
58955;BME280;45815;52.334;5.024;2023-02-11T06:16:01;103342.53;;;6.55;100.00
58955;BME280;45815;52.334;5.024;2023-02-11T06:18:27;103351.13;;;6.54;100.00
58955;BME280;45815;52.334;5.024;2023-02-11T06:20:53;103353.75;;;6.54;100.00
58955;BME280;45815;52.334;5.024;2023-02-11T06:23:18;103354.78;;;6.57;100.00
58955;BME280;45815;52.334;5.024;2023-02-11T06:25:44;103358.19;;;6.55;100.00
58955;BME280;45815;52.334;5.024;2023-02-11T06:28:09;103352.28;;;6.58;100.00
58955;BME280;45815;52.334;5.024;2023-02-11T06:30:36;103348.88;;;6.59;100.00
58955;BME280;45815;52.334;5.024;2023-02-11T06:33:02;103358.41;;;6.59;100.00
58955;BME280;45815;52.334;5.024;2023-02-11T06:35:28;103353.41;;;6.62;100.00
58955;BME280;45815;52.334;5.024;2023-02-11T06:37:53;103345.59;;;6.62;100.00
58955;BME280;45815;52.334;5.024;2023-02-11T06:40:19;103341.25;;;6.62;100.00
58955;BME280;45815;52.334;5.024;2023-02-11T06:42:44;103339.47;;;6.61;100.00
58955;BME280;45815;52.334;5.024;2023-02-11T06:45:10;103337.53;;;6.59;100.00
58955;BME280;45815;52.334;5.024;2023-02-11T06:47:38;103353.19;;;6.59;100.00
58955;BME280;45815;52.334;5.024;2023-02-11T06:50:05;103353.97;;;6.58;100.00
58955;BME280;45815;52.334;5.024;2023-02-11T06:52:32;103357.72;;;6.61;100.00
58955;BME280;45815;52.334;5.024;2023-02-11T06:54:57;103356.84;;;6.61;100.00
58955;BME280;45815;52.334;5.024;2023-02-11T06:57:23;103364.88;;;6.64;100.00
58955;BME280;45815;52.334;5.024;2023-02-11T06:59:48;103355.25;;;6.63;100.00
58955;BME280;45815;52.334;5.024;2023-02-11T07:02:14;103360.22;;;6.60;100.00
58955;BME280;45815;52.334;5.024;2023-02-11T07:04:39;103362.81;;;6.60;100.00
58955;BME280;45815;52.334;5.024;2023-02-11T07:07:05;103360.00;;;6.57;100.00
58955;BME280;45815;52.334;5.024;2023-02-11T07:09:31;103365.06;;;6.55;100.00
58955;BME280;45815;52.334;5.024;2023-02-11T07:11:56;103338.75;;;6.40;100.00
58955;BME280;45815;52.334;5.024;2023-02-11T07:14:21;103361.09;;;6.48;100.00
58955;BME280;45815;52.334;5.024;2023-02-11T07:16:47;103360.88;;;6.45;100.00
58955;BME280;45815;52.334;5.024;2023-02-11T07:19:12;103371.53;;;6.48;100.00
58955;BME280;45815;52.334;5.024;2023-02-11T07:21:37;103377.56;;;6.47;100.00
58955;BME280;45815;52.334;5.024;2023-02-11T07:24:07;103382.78;;;6.47;100.00
58955;BME280;45815;52.334;5.024;2023-02-11T07:26:33;103373.22;;;6.48;100.00
58955;BME280;45815;52.334;5.024;2023-02-11T07:28:58;103369.59;;;6.46;100.00
58955;BME280;45815;52.334;5.024;2023-02-11T07:31:26;103383.13;;;6.52;100.00
58955;BME280;45815;52.334;5.024;2023-02-11T07:33:54;103377.69;;;6.49;100.00
58955;BME280;45815;52.334;5.024;2023-02-11T07:36:22;103382.22;;;6.51;100.00
58955;BME280;45815;52.334;5.024;2023-02-11T07:38:48;103379.63;;;6.51;100.00
58955;BME280;45815;52.334;5.024;2023-02-11T07:41:16;103389.03;;;6.49;100.00
58955;BME280;45815;52.334;5.024;2023-02-11T07:43:42;103388.00;;;6.47;100.00
58955;BME280;45815;52.334;5.024;2023-02-11T07:46:11;103393.22;;;6.47;100.00
58955;BME280;45815;52.334;5.024;2023-02-11T07:48:37;103393.56;;;6.52;100.00
58955;BME280;45815;52.334;5.024;2023-02-11T07:51:17;103396.84;;;6.49;100.00
58955;BME280;45815;52.334;5.024;2023-02-11T07:53:43;103400.84;;;6.56;100.00
58955;BME280;45815;52.334;5.024;2023-02-11T07:56:10;103397.66;;;6.60;100.00
58955;BME280;45815;52.334;5.024;2023-02-11T07:58:36;103396.06;;;6.62;100.00
58955;BME280;45815;52.334;5.024;2023-02-11T08:01:07;103397.22;;;6.66;100.00
58955;BME280;45815;52.334;5.024;2023-02-11T08:03:34;103404.50;;;6.70;100.00
58955;BME280;45815;52.334;5.024;2023-02-11T08:06:11;103406.84;;;6.67;100.00
58955;BME280;45815;52.334;5.024;2023-02-11T08:08:37;103410.75;;;6.72;100.00
58955;BME280;45815;52.334;5.024;2023-02-11T08:11:06;103416.06;;;6.73;100.00
58955;BME280;45815;52.334;5.024;2023-02-11T08:13:32;103403.91;;;6.74;100.00
58955;BME280;45815;52.334;5.024;2023-02-11T08:15:59;103417.44;;;6.80;100.00
58955;BME280;45815;52.334;5.024;2023-02-11T08:18:24;103416.75;;;6.83;100.00
58955;BME280;45815;52.334;5.024;2023-02-11T08:20:50;103410.88;;;6.85;100.00
58955;BME280;45815;52.334;5.024;2023-02-11T08:23:15;103414.72;;;6.90;100.00
58955;BME280;45815;52.334;5.024;2023-02-11T08:25:40;103411.56;;;6.94;100.00
58955;BME280;45815;52.334;5.024;2023-02-11T08:28:06;103417.25;;;7.01;100.00
58955;BME280;45815;52.334;5.024;2023-02-11T08:30:33;103420.56;;;7.10;100.00
58955;BME280;45815;52.334;5.024;2023-02-11T08:32:59;103422.03;;;7.18;100.00
58955;BME280;45815;52.334;5.024;2023-02-11T08:35:24;103422.50;;;7.24;100.00
58955;BME280;45815;52.334;5.024;2023-02-11T08:37:51;103419.31;;;7.28;100.00
58955;BME280;45815;52.334;5.024;2023-02-11T08:40:16;103417.47;;;7.27;100.00
58955;BME280;45815;52.334;5.024;2023-02-11T08:42:42;103419.53;;;7.31;100.00
58955;BME280;45815;52.334;5.024;2023-02-11T08:45:07;103423.38;;;7.36;100.00
58955;BME280;45815;52.334;5.024;2023-02-11T08:47:35;103424.75;;;7.43;100.00
58955;BME280;45815;52.334;5.024;2023-02-11T08:50:00;103431.34;;;7.50;100.00
58955;BME280;45815;52.334;5.024;2023-02-11T08:52:26;103436.00;;;7.54;100.00
58955;BME280;45815;52.334;5.024;2023-02-11T08:54:51;103430.19;;;7.58;100.00
58955;BME280;45815;52.334;5.024;2023-02-11T08:57:17;103435.41;;;7.58;100.00
58955;BME280;45815;52.334;5.024;2023-02-11T08:59:42;103442.69;;;7.62;100.00
58955;BME280;45815;52.334;5.024;2023-02-11T09:02:11;103438.00;;;7.70;100.00
58955;BME280;45815;52.334;5.024;2023-02-11T09:04:37;103438.13;;;7.71;100.00
58955;BME280;45815;52.334;5.024;2023-02-11T09:07:02;103433.34;;;7.77;100.00
58955;BME280;45815;52.334;5.024;2023-02-11T09:09:29;103437.63;;;7.77;100.00
58955;BME280;45815;52.334;5.024;2023-02-11T09:11:54;103445.03;;;7.82;100.00
58955;BME280;45815;52.334;5.024;2023-02-11T09:14:25;103436.03;;;7.91;100.00
58955;BME280;45815;52.334;5.024;2023-02-11T09:16:50;103447.16;;;8.00;100.00
58955;BME280;45815;52.334;5.024;2023-02-11T09:19:17;103447.81;;;8.09;100.00
58955;BME280;45815;52.334;5.024;2023-02-11T09:21:43;103449.41;;;8.07;100.00
58955;BME280;45815;52.334;5.024;2023-02-11T09:24:09;103455.78;;;8.11;100.00
58955;BME280;45815;52.334;5.024;2023-02-11T09:26:36;103461.22;;;8.14;100.00
58955;BME280;45815;52.334;5.024;2023-02-11T09:29:02;103453.47;;;8.15;100.00
58955;BME280;45815;52.334;5.024;2023-02-11T09:31:30;103450.06;;;8.16;100.00
58955;BME280;45815;52.334;5.024;2023-02-11T09:33:58;103457.13;;;8.17;100.00
58955;BME280;45815;52.334;5.024;2023-02-11T09:36:26;103461.16;;;8.25;100.00
58955;BME280;45815;52.334;5.024;2023-02-11T09:38:53;103463.22;;;8.30;100.00
58955;BME280;45815;52.334;5.024;2023-02-11T09:43:48;103467.06;;;8.35;100.00
58955;BME280;45815;52.334;5.024;2023-02-11T09:46:16;103472.16;;;8.33;100.00
58955;BME280;45815;52.334;5.024;2023-02-11T09:48:45;103471.59;;;8.37;100.00
58955;BME280;45815;52.334;5.024;2023-02-11T09:51:18;103473.31;;;8.37;100.00
58955;BME280;45815;52.334;5.024;2023-02-11T09:53:47;103488.19;;;8.38;100.00
58955;BME280;45815;52.334;5.024;2023-02-11T09:56:15;103480.94;;;8.45;100.00
58955;BME280;45815;52.334;5.024;2023-02-11T09:58:42;103484.91;;;8.52;100.00
58955;BME280;45815;52.334;5.024;2023-02-11T10:01:46;103481.03;;;8.47;100.00
58955;BME280;45815;52.334;5.024;2023-02-11T10:07:20;103493.53;;;8.51;100.00
58955;BME280;45815;52.334;5.024;2023-02-11T10:15:44;103507.53;;;8.52;100.00
58955;BME280;45815;52.334;5.024;2023-02-11T10:18:39;103503.22;;;8.52;100.00
58955;BME280;45815;52.334;5.024;2023-02-11T10:21:11;103518.50;;;8.71;100.00
58955;BME280;45815;52.334;5.024;2023-02-11T10:23:42;103509.56;;;8.81;100.00
58955;BME280;45815;52.334;5.024;2023-02-11T10:26:12;103506.84;;;8.79;100.00
58955;BME280;45815;52.334;5.024;2023-02-11T10:28:41;103513.94;;;8.94;100.00
58955;BME280;45815;52.334;5.024;2023-02-11T10:31:21;103507.72;;;9.05;100.00
58955;BME280;45815;52.334;5.024;2023-02-11T10:36:21;103515.91;;;9.36;100.00
58955;BME280;45815;52.334;5.024;2023-02-11T10:38:48;103506.13;;;9.34;100.00
58955;BME280;45815;52.334;5.024;2023-02-11T10:41:17;103510.69;;;9.36;100.00
58955;BME280;45815;52.334;5.024;2023-02-11T10:43:44;103504.06;;;9.41;100.00
58955;BME280;45815;52.334;5.024;2023-02-11T10:46:16;103505.75;;;9.41;100.00
58955;BME280;45815;52.334;5.024;2023-02-11T10:48:47;103517.94;;;9.40;100.00
58955;BME280;45815;52.334;5.024;2023-02-11T10:51:18;103514.03;;;9.47;100.00
58955;BME280;45815;52.334;5.024;2023-02-11T10:53:46;103513.09;;;9.60;100.00
58955;BME280;45815;52.334;5.024;2023-02-11T10:56:25;103513.75;;;9.56;100.00
58955;BME280;45815;52.334;5.024;2023-02-11T10:59:20;103519.88;;;9.56;100.00
58955;BME280;45815;52.334;5.024;2023-02-11T11:01:52;103518.88;;;9.54;100.00
58955;BME280;45815;52.334;5.024;2023-02-11T11:04:32;103516.53;;;9.45;100.00
58955;BME280;45815;52.334;5.024;2023-02-11T11:07:21;103517.97;;;9.54;100.00
58955;BME280;45815;52.334;5.024;2023-02-11T11:09:50;103523.13;;;9.65;100.00
58955;BME280;45815;52.334;5.024;2023-02-11T11:12:45;103518.06;;;9.68;100.00
58955;BME280;45815;52.334;5.024;2023-02-11T11:15:21;103515.13;;;9.77;100.00
58955;BME280;45815;52.334;5.024;2023-02-11T11:18:08;103518.78;;;9.79;100.00
58955;BME280;45815;52.334;5.024;2023-02-11T11:20:33;103524.03;;;9.79;100.00
58955;BME280;45815;52.334;5.024;2023-02-11T11:25:40;103530.16;;;9.80;100.00
58955;BME280;45815;52.334;5.024;2023-02-11T11:28:19;103523.19;;;9.80;100.00
58955;BME280;45815;52.334;5.024;2023-02-11T11:30:45;103528.03;;;9.87;100.00
58955;BME280;45815;52.334;5.024;2023-02-11T11:33:26;103527.34;;;9.77;100.00
58955;BME280;45815;52.334;5.024;2023-02-11T11:35:58;103532.38;;;9.87;100.00
58955;BME280;45815;52.334;5.024;2023-02-11T11:38:24;103534.72;;;9.96;100.00
58955;BME280;45815;52.334;5.024;2023-02-11T11:41:16;103538.94;;;10.07;100.00
58955;BME280;45815;52.334;5.024;2023-02-11T11:43:57;103545.16;;;10.09;100.00
58955;BME280;45815;52.334;5.024;2023-02-11T11:46:35;103541.34;;;10.04;100.00
58955;BME280;45815;52.334;5.024;2023-02-11T11:49:27;103546.59;;;10.04;100.00
58955;BME280;45815;52.334;5.024;2023-02-11T11:52:10;103549.94;;;9.88;100.00
58955;BME280;45815;52.334;5.024;2023-02-11T11:54:42;103550.25;;;9.79;100.00
58955;BME280;45815;52.334;5.024;2023-02-11T11:57:14;103545.09;;;9.81;100.00
58955;BME280;45815;52.334;5.024;2023-02-11T11:59:42;103546.41;;;9.87;100.00
58955;BME280;45815;52.334;5.024;2023-02-11T12:02:46;103535.50;;;9.94;100.00
58955;BME280;45815;52.334;5.024;2023-02-11T12:05:25;103542.66;;;10.10;100.00
58955;BME280;45815;52.334;5.024;2023-02-11T12:08:09;103542.63;;;10.24;100.00
58955;BME280;45815;52.334;5.024;2023-02-11T12:13:39;103533.66;;;10.20;100.00
58955;BME280;45815;52.334;5.024;2023-02-11T12:24:59;103530.03;;;10.31;100.00
58955;BME280;45815;52.334;5.024;2023-02-11T12:32:58;103542.72;;;10.25;100.00
58955;BME280;45815;52.334;5.024;2023-02-11T12:43:42;103529.31;;;11.35;100.00
58955;BME280;45815;52.334;5.024;2023-02-11T12:51:48;103524.00;;;12.91;100.00
58955;BME280;45815;52.334;5.024;2023-02-11T12:54:36;103512.81;;;13.13;100.00
58955;BME280;45815;52.334;5.024;2023-02-11T12:57:21;103519.78;;;13.63;100.00
58955;BME280;45815;52.334;5.024;2023-02-11T13:02:48;103526.47;;;14.10;100.00
58955;BME280;45815;52.334;5.024;2023-02-11T13:05:33;103538.00;;;14.12;100.00
58955;BME280;45815;52.334;5.024;2023-02-11T13:08:08;103530.22;;;13.60;100.00
58955;BME280;45815;52.334;5.024;2023-02-11T13:10:38;103522.47;;;13.29;100.00
58955;BME280;45815;52.334;5.024;2023-02-11T13:13:20;103522.13;;;12.88;100.00
58955;BME280;45815;52.334;5.024;2023-02-11T13:15:50;103522.28;;;12.75;100.00
58955;BME280;45815;52.334;5.024;2023-02-11T13:26:39;103497.91;;;12.79;100.00
58955;BME280;45815;52.334;5.024;2023-02-11T13:29:56;103497.56;;;12.73;100.00
58955;BME280;45815;52.334;5.024;2023-02-11T13:35:37;103492.56;;;13.12;100.00
58955;BME280;45815;52.334;5.024;2023-02-11T13:38:25;103499.13;;;13.20;100.00
58955;BME280;45815;52.334;5.024;2023-02-11T13:41:20;103495.66;;;13.38;100.00
58955;BME280;45815;52.334;5.024;2023-02-11T13:43:58;103497.97;;;13.32;100.00
58955;BME280;45815;52.334;5.024;2023-02-11T13:46:26;103476.78;;;12.96;100.00
58955;BME280;45815;52.334;5.024;2023-02-11T13:48:53;103490.97;;;12.81;100.00
58955;BME280;45815;52.334;5.024;2023-02-11T13:51:39;103501.38;;;12.78;100.00
58955;BME280;45815;52.334;5.024;2023-02-11T13:54:06;103516.59;;;12.67;100.00
58955;BME280;45815;52.334;5.024;2023-02-11T13:56:36;103504.91;;;12.30;100.00
58955;BME280;45815;52.334;5.024;2023-02-11T14:15:48;103517.81;;;11.48;100.00
58955;BME280;45815;52.334;5.024;2023-02-11T14:21:12;103504.94;;;11.23;100.00
58955;BME280;45815;52.334;5.024;2023-02-11T14:23:39;103509.66;;;11.13;100.00
58955;BME280;45815;52.334;5.024;2023-02-11T14:29:38;103525.25;;;11.10;100.00
58955;BME280;45815;52.334;5.024;2023-02-11T14:36:05;103522.84;;;11.00;100.00
58955;BME280;45815;52.334;5.024;2023-02-11T14:41:21;103524.53;;;11.13;100.00
58955;BME280;45815;52.334;5.024;2023-02-11T14:43:53;103530.22;;;11.20;100.00
58955;BME280;45815;52.334;5.024;2023-02-11T14:46:22;103518.16;;;11.09;100.00
58955;BME280;45815;52.334;5.024;2023-02-11T14:48:51;103512.56;;;11.03;100.00
58955;BME280;45815;52.334;5.024;2023-02-11T14:53:54;103522.25;;;11.04;100.00
58955;BME280;45815;52.334;5.024;2023-02-11T14:56:27;103525.75;;;10.90;100.00
58955;BME280;45815;52.334;5.024;2023-02-11T14:58:55;103544.25;;;10.91;100.00
58955;BME280;45815;52.334;5.024;2023-02-11T15:03:53;103537.44;;;10.80;100.00
58955;BME280;45815;52.334;5.024;2023-02-11T15:09:02;103539.94;;;10.78;100.00
58955;BME280;45815;52.334;5.024;2023-02-11T15:11:31;103538.75;;;10.73;100.00
58955;BME280;45815;52.334;5.024;2023-02-11T15:14:05;103550.56;;;10.80;100.00